Time;durP1;ratioP1;P1;durP2;ratioP2;P2;SDS_P1;SDS_P2;PMS_P1;PMS_P2;Temp;Humidity;BMP_temperature;BMP_pressure;BME280_temperature;BME280_humidity;BME280_pressure;Samples;Min_cycle;Max_cycle;Signal;HPM_P1;HPM_P2
2023/06/03 00:04:31;;;;;;;2.80;1.70;;;25.20;77.00;;;;;;10981118;32;20014;-73
2023/06/03 00:10:33;;;;;;;5.45;2.97;;;25.10;77.20;;;;;;10981270;32;20047;-73
2023/06/03 00:16:35;;;;;;;3.80;2.80;;;24.80;77.50;;;;;;10981486;32;20015;-74
2023/06/03 00:22:38;;;;;;;5.53;3.90;;;24.80;78.00;;;;;;10981970;32;20381;-74
2023/06/03 00:28:40;;;;;;;6.85;2.75;;;24.80;78.10;;;;;;10980504;32;20022;-74
2023/06/03 00:34:43;;;;;;;4.70;3.40;;;24.80;78.00;;;;;;10981426;32;20041;-74
2023/06/03 00:40:45;;;;;;;3.10;2.20;;;24.90;77.50;;;;;;10966833;32;20015;-74
2023/06/03 00:46:47;;;;;;;5.10;3.12;;;24.90;77.40;;;;;;10981238;32;20022;-74
2023/06/03 00:52:51;;;;;;;8.95;2.65;;;24.80;77.40;;;;;;10968298;32;20092;-73
2023/06/03 00:58:53;;;;;;;3.85;2.20;;;24.90;77.60;;;;;;10980821;32;20058;-73
2023/06/03 01:04:57;;;;;;;4.50;2.40;;;24.80;78.10;;;;;;10980715;32;20010;-73
2023/06/03 01:11:11;;;;;;;8.80;3.20;;;24.80;78.00;;;;;;10980623;32;20019;-73
2023/06/03 01:17:16;;;;;;;3.85;2.03;;;24.80;78.20;;;;;;10983882;32;20077;-73
2023/06/03 01:23:28;;;;;;;5.00;2.97;;;24.80;78.50;;;;;;10987175;32;20049;-73
2023/06/03 01:29:30;;;;;;;8.75;2.28;;;24.70;78.30;;;;;;10969618;32;20048;-72
2023/06/03 01:35:33;;;;;;;4.30;1.40;;;24.50;78.70;;;;;;10983074;32;20006;-73
2023/06/03 01:41:37;;;;;;;3.47;1.50;;;24.50;78.70;;;;;;10987373;32;20420;-73
2023/06/03 01:47:41;;;;;;;4.30;2.70;;;24.50;78.60;;;;;;10986291;32;20027;-73
2023/06/03 01:53:42;;;;;;;5.75;2.47;;;24.60;78.40;;;;;;10986793;32;20041;-73
2023/06/03 01:59:45;;;;;;;4.37;2.70;;;24.60;78.30;;;;;;10971738;32;20057;-73
2023/06/03 02:05:47;;;;;;;3.17;1.92;;;24.60;78.30;;;;;;10986837;32;20046;-73
2023/06/03 02:11:50;;;;;;;2.92;1.85;;;24.60;78.50;;;;;;10981474;32;20054;-73
2023/06/03 02:17:51;;;;;;;3.40;1.80;;;24.60;78.70;;;;;;10986619;32;20018;-73
2023/06/03 02:23:53;;;;;;;3.65;2.00;;;24.70;79.10;;;;;;10985050;32;20050;-73
2023/06/03 02:29:55;;;;;;;4.55;2.42;;;24.60;79.40;;;;;;10984522;32;20023;-74
2023/06/03 02:35:58;;;;;;;4.68;2.40;;;24.50;80.00;;;;;;10984600;32;20325;-73
2023/06/03 02:41:59;;;;;;;3.33;2.05;;;24.30;80.20;;;;;;10972141;32;20301;-73
2023/06/03 02:48:01;;;;;;;3.65;2.25;;;24.30;80.10;;;;;;10984289;32;20030;-73
2023/06/03 02:54:04;;;;;;;5.65;2.35;;;24.30;79.90;;;;;;10983414;32;20066;-72
2023/06/03 03:00:10;;;;;;;5.25;2.50;;;24.10;79.70;;;;;;10981284;32;20023;-73
2023/06/03 03:06:15;;;;;;;3.08;1.90;;;24.00;80.30;;;;;;10983126;32;20014;-73
2023/06/03 03:12:17;;;;;;;2.17;1.52;;;23.90;80.70;;;;;;10983148;32;20014;-74
2023/06/03 03:18:20;;;;;;;2.35;1.30;;;23.90;80.90;;;;;;10983059;32;20026;-73
2023/06/03 03:24:24;;;;;;;2.75;1.83;;;24.00;80.70;;;;;;10969108;32;20023;-73
2023/06/03 03:30:27;;;;;;;2.62;1.83;;;24.00;80.80;;;;;;10969263;32;20014;-73
2023/06/03 03:36:30;;;;;;;4.15;1.92;;;24.10;80.80;;;;;;10982276;32;20294;-73
2023/06/03 03:42:33;;;;;;;3.55;2.20;;;24.00;80.50;;;;;;10981397;32;20019;-73
2023/06/03 03:48:35;;;;;;;4.65;2.37;;;24.00;80.90;;;;;;10981902;32;20065;-73
2023/06/03 03:54:37;;;;;;;3.15;2.10;;;24.00;80.70;;;;;;10981603;32;20014;-73
2023/06/03 04:00:41;;;;;;;10.15;2.12;;;24.00;80.60;;;;;;10981174;32;20026;-73
2023/06/03 04:06:45;;;;;;;3.65;2.00;;;24.00;80.30;;;;;;10967204;32;20030;-74
2023/06/03 04:12:48;;;;;;;3.22;1.75;;;23.90;80.00;;;;;;10981087;32;20397;-74
2023/06/03 04:18:51;;;;;;;3.87;2.35;;;23.60;80.00;;;;;;10980690;32;20018;-74
2023/06/03 04:25:00;;;;;;;3.30;2.05;;;23.30;79.80;;;;;;10980452;32;20084;-73
2023/06/03 04:31:03;;;;;;;3.97;2.42;;;23.40;80.20;;;;;;10980087;32;20388;-74
2023/06/03 04:37:05;;;;;;;1.87;1.20;;;23.50;80.10;;;;;;10980367;32;20426;-73
2023/06/03 04:43:07;;;;;;;1.77;1.05;;;23.50;80.00;;;;;;10963359;32;20014;-74
2023/06/03 04:49:10;;;;;;;3.67;2.55;;;23.30;80.00;;;;;;10979982;32;20400;-73
2023/06/03 04:55:12;;;;;;;3.25;1.98;;;23.40;80.10;;;;;;10965480;32;20030;-74
2023/06/03 05:01:17;;;;;;;1.65;1.42;;;23.50;80.60;;;;;;10979649;32;20023;-74
2023/06/03 05:07:19;;;;;;;3.33;2.08;;;23.60;81.00;;;;;;10965218;32;20049;-74
2023/06/03 05:13:21;;;;;;;2.40;1.48;;;23.70;80.90;;;;;;10979574;32;20344;-74
2023/06/03 05:19:24;;;;;;;2.62;1.62;;;23.50;80.80;;;;;;10979367;32;20077;-74
2023/06/03 05:25:27;;;;;;;4.10;1.92;;;23.50;80.80;;;;;;10952072;32;20053;-74
2023/06/03 05:31:29;;;;;;;1.75;1.12;;;23.60;80.60;;;;;;10978999;32;20310;-74
2023/06/03 05:37:31;;;;;;;2.45;1.70;;;23.80;80.30;;;;;;10979125;32;20045;-74
2023/06/03 05:43:35;;;;;;;2.75;1.48;;;24.00;80.10;;;;;;10978900;32;20003;-74
2023/06/03 05:49:37;;;;;;;2.58;1.50;;;24.00;80.20;;;;;;10964898;32;20034;-70
2023/06/03 05:55:39;;;;;;;1.52;1.17;;;24.10;80.30;;;;;;10978739;32;20380;-72
2023/06/03 06:02:09;;;;;;;4.53;2.40;;;24.20;80.30;;;;;;10981782;32;20388;-71
2023/06/03 06:08:11;;;;;;;3.45;1.60;;;24.30;80.10;;;;;;10985495;32;20014;-70
2023/06/03 06:14:13;;;;;;;3.03;1.90;;;24.50;80.50;;;;;;10985423;32;20018;-69
2023/06/03 06:20:16;;;;;;;2.60;1.58;;;24.80;80.00;;;;;;10984969;32;20018;-70
2023/06/03 06:26:18;;;;;;;5.85;1.50;;;25.00;80.10;;;;;;10984877;32;20355;-70
2023/06/03 06:32:26;;;;;;;3.67;2.28;;;25.30;80.30;;;;;;10984784;32;20026;-69
2023/06/03 06:38:34;;;;;;;4.70;2.30;;;25.30;79.00;;;;;;10981931;32;20027;-72
2023/06/03 06:44:46;;;;;;;2.75;1.85;;;25.30;79.00;;;;;;10983881;32;20037;-70
2023/06/03 06:50:53;;;;;;;2.58;1.33;;;25.50;79.30;;;;;;10983880;32;20022;-73
2023/06/03 06:56:55;;;;;;;2.27;1.33;;;25.60;78.50;;;;;;10983899;32;20010;-72
2023/06/03 07:02:57;;;;;;;1.83;1.50;;;25.80;78.70;;;;;;10983601;32;20014;-71
2023/06/03 07:08:59;;;;;;;4.85;1.70;;;25.90;77.90;;;;;;10969051;32;20042;-69
2023/06/03 07:15:02;;;;;;;1.87;1.10;;;26.00;77.20;;;;;;10980652;32;20031;-71
2023/06/03 07:21:04;;;;;;;2.42;1.42;;;26.00;77.10;;;;;;10982774;32;20062;-71
2023/06/03 07:27:07;;;;;;;7.03;1.87;;;26.10;76.70;;;;;;10300325;27;22463666;-72
2023/06/03 07:33:29;;;;;;;1.37;1.00;;;26.10;75.10;;;;;;10968989;32;20023;-71
2023/06/03 07:39:32;;;;;;;2.72;1.87;;;26.30;75.50;;;;;;10977342;32;20019;-71
2023/06/03 07:45:35;;;;;;;2.70;2.00;;;26.40;75.00;;;;;;10975163;32;20306;-69
2023/06/03 07:51:50;;;;;;;3.60;2.25;;;26.40;71.10;;;;;;10932043;32;20349;-71
2023/06/03 07:57:53;;;;;;;3.72;2.12;;;26.30;68.70;;;;;;10968290;32;20053;-71
2023/06/03 08:03:55;;;;;;;2.92;1.62;;;26.50;70.00;;;;;;10980413;32;20337;-71
2023/06/03 08:09:58;;;;;;;3.28;1.98;;;26.60;70.20;;;;;;10977196;32;20022;-72
2023/06/03 08:16:00;;;;;;;3.40;2.28;;;26.70;71.00;;;;;;10967088;32;20053;-71
2023/06/03 08:22:18;;;;;;;3.83;1.80;;;26.70;71.40;;;;;;10982160;32;20340;-71
2023/06/03 08:28:20;;;;;;;2.10;1.60;;;26.80;71.40;;;;;;10980596;32;20423;-72
2023/06/03 08:34:22;;;;;;;4.32;2.20;;;26.90;71.30;;;;;;10980431;32;20023;-70
2023/06/03 08:40:25;;;;;;;3.00;1.90;;;27.00;72.80;;;;;;10966342;32;20054;-71
2023/06/03 08:46:41;;;;;;;3.55;1.98;;;27.10;73.10;;;;;;10966474;32;20022;-69
2023/06/03 08:52:46;;;;;;;3.05;1.77;;;27.30;72.60;;;;;;10965866;32;20018;-70
2023/06/03 08:58:59;;;;;;;3.72;2.00;;;27.40;72.80;;;;;;10979072;32;20015;-70
2023/06/03 09:05:28;;;;;;;3.20;1.62;;;27.50;72.40;;;;;;10979319;32;20011;-74
2023/06/03 09:11:30;;;;;;;4.43;2.25;;;27.70;72.00;;;;;;10978683;32;20022;-72
2023/06/03 09:17:34;;;;;;;4.32;1.92;;;27.80;72.10;;;;;;10978844;32;20026;-70
2023/06/03 09:23:39;;;;;;;3.30;2.05;;;27.80;71.80;;;;;;10975339;32;20026;-70
2023/06/03 09:29:42;;;;;;;3.97;2.42;;;27.90;72.00;;;;;;10978784;32;20022;-69
2023/06/03 09:36:06;;;;;;;4.40;2.67;;;28.10;72.20;;;;;;10979190;32;20393;-71
2023/06/03 09:42:10;;;;;;;8.00;3.33;;;28.00;67.50;;;;;;10986168;32;20014;-69
2023/06/03 09:48:12;;;;;;;4.10;2.42;;;27.90;65.30;;;;;;10985804;32;20022;-70
2023/06/03 09:54:15;;;;;;;6.30;2.95;;;28.00;64.30;;;;;;10984422;32;20014;-69
2023/06/03 10:00:17;;;;;;;4.15;3.05;;;28.10;66.10;;;;;;10984488;32;20027;-69
2023/06/03 10:06:19;;;;;;;3.40;1.98;;;28.20;65.00;;;;;;10920654;32;20057;-69
2023/06/03 10:12:29;;;;;;;3.08;2.15;;;28.30;66.50;;;;;;10981370;32;20426;-70
2023/06/03 10:18:39;;;;;;;4.53;2.67;;;28.30;65.30;;;;;;10907427;32;20026;-70
2023/06/03 10:24:43;;;;;;;4.32;2.80;;;28.50;65.20;;;;;;10984919;32;20348;-70
2023/06/03 10:30:46;;;;;;;5.18;2.72;;;28.60;64.70;;;;;;10984571;32;20022;-69
2023/06/03 10:36:56;;;;;;;4.12;2.40;;;28.80;67.80;;;;;;10984623;32;20187;-70
2023/06/03 10:42:58;;;;;;;3.70;2.40;;;28.90;66.30;;;;;;10740261;32;20024;-70
2023/06/03 10:49:04;;;;;;;4.32;2.47;;;28.90;66.20;;;;;;10750999;33;20167;-70
2023/06/03 10:55:35;;;;;;;4.90;3.50;;;28.90;65.40;;;;;;10749810;33;20032;-70
2023/06/03 11:02:00;;;;;;;4.62;3.10;;;29.20;64.30;;;;;;10751658;33;20047;-70
2023/06/03 11:08:02;;;;;;;9.18;3.67;;;29.50;61.50;;;;;;10739781;33;20293;-73
2023/06/03 11:14:04;;;;;;;6.72;3.37;;;29.50;62.70;;;;;;10905935;32;20411;-74
2023/06/03 11:20:08;;;;;;;5.12;3.47;;;29.80;62.30;;;;;;10982816;32;20037;-75
2023/06/03 11:26:32;;;;;;;3.65;2.25;;;30.00;62.60;;;;;;10982815;32;20065;-70
2023/06/03 11:32:36;;;;;;;3.92;2.00;;;30.30;62.50;;;;;;10982346;32;20120;-70
2023/06/03 11:38:58;;;;;;;6.70;3.60;;;29.80;62.60;;;;;;10917393;32;20033;-73
2023/06/03 11:45:29;;;;;;;5.15;3.33;;;29.70;63.40;;;;;;10982252;32;20037;-72
2023/06/03 11:51:31;;;;;;;3.55;2.70;;;29.90;62.80;;;;;;10976186;32;20340;-71
2023/06/03 11:57:33;;;;;;;11.55;4.12;;;30.00;62.10;;;;;;10981788;32;20311;-70
2023/06/03 12:03:36;;;;;;;5.03;3.28;;;30.10;63.40;;;;;;10916201;32;20049;-69
2023/06/03 12:09:56;;;;;;;11.60;4.00;;;30.20;61.20;;;;;;10981107;32;20430;-71
2023/06/03 12:15:59;;;;;;;4.30;3.30;;;30.30;60.50;;;;;;10980727;32;20019;-71
2023/06/03 12:22:01;;;;;;;5.90;4.22;;;30.30;60.90;;;;;;10980405;32;20018;-69
2023/06/03 12:28:27;;;;;;;4.40;3.20;;;30.40;62.40;;;;;;10980486;32;20022;-74
2023/06/03 12:34:34;;;;;;;6.53;3.28;;;30.40;61.80;;;;;;10914436;32;20404;-73
2023/06/03 12:40:36;;;;;;;3.95;2.67;;;30.50;61.00;;;;;;10914592;32;20408;-74
2023/06/03 12:46:38;;;;;;;7.78;4.03;;;30.50;60.70;;;;;;10979953;32;20045;-73
2023/06/03 12:52:41;;;;;;;7.25;3.42;;;30.50;60.80;;;;;;10979375;32;20011;-70
2023/06/03 12:58:53;;;;;;;8.02;4.03;;;30.30;60.90;;;;;;10979626;32;20042;-71
2023/06/03 13:04:55;;;;;;;7.82;3.85;;;30.20;62.90;;;;;;10979490;32;20068;-73
2023/06/03 13:10:57;;;;;;;9.43;3.47;;;30.10;61.80;;;;;;10914150;32;20026;-73
2023/06/03 13:17:12;;;;;;;4.75;3.12;;;30.00;62.00;;;;;;10932752;32;20389;-70
2023/06/03 13:23:14;;;;;;;4.80;2.55;;;30.00;62.30;;;;;;10975058;32;20018;-70
2023/06/03 13:29:16;;;;;;;6.57;3.87;;;30.00;62.30;;;;;;10978919;32;20026;-69
2023/06/03 13:35:18;;;;;;;5.82;3.53;;;30.20;60.10;;;;;;10978840;32;20010;-71
2023/06/03 13:41:21;;;;;;;7.50;3.55;;;30.30;59.10;;;;;;10979491;32;20015;-70
2023/06/03 13:47:23;;;;;;;4.50;3.10;;;30.20;60.20;;;;;;10965929;32;20045;-70
2023/06/03 13:53:25;;;;;;;7.00;3.20;;;30.10;59.50;;;;;;10978690;32;20015;-70
2023/06/03 13:59:29;;;;;;;6.72;3.67;;;30.10;59.00;;;;;;10978744;32;20388;-69
2023/06/03 14:05:31;;;;;;;6.55;3.65;;;30.20;62.40;;;;;;10978583;32;20023;-69
2023/06/03 14:11:33;;;;;;;4.65;3.10;;;30.00;63.40;;;;;;10978406;32;20022;-69
2023/06/03 14:17:43;;;;;;;7.78;3.25;;;29.80;62.30;;;;;;10964350;32;20041;-70
2023/06/03 14:23:45;;;;;;;10.35;3.65;;;29.80;60.80;;;;;;10980953;32;20046;-70
2023/06/03 14:29:47;;;;;;;3.75;2.60;;;29.80;61.00;;;;;;10984705;32;20026;-70
2023/06/03 14:35:49;;;;;;;4.68;3.30;;;29.80;60.00;;;;;;10984476;32;20045;-69
2023/06/03 14:41:52;;;;;;;5.00;3.03;;;29.70;60.90;;;;;;10970033;32;20063;-70
2023/06/03 14:48:12;;;;;;;4.70;3.20;;;29.70;61.60;;;;;;10984592;32;20344;-69
2023/06/03 14:54:15;;;;;;;4.82;2.78;;;29.70;59.20;;;;;;10983906;32;20055;-70
2023/06/03 15:00:17;;;;;;;5.60;3.22;;;29.70;59.60;;;;;;10983445;32;20015;-70
2023/06/03 15:06:19;;;;;;;7.10;2.87;;;29.60;62.20;;;;;;10983487;32;20045;-70
2023/06/03 15:12:21;;;;;;;7.05;3.45;;;29.60;61.90;;;;;;10983328;32;20026;-70
2023/06/03 15:18:23;;;;;;;7.32;3.85;;;29.70;60.30;;;;;;10969276;32;20080;-71
2023/06/03 15:24:25;;;;;;;4.47;2.55;;;29.70;61.50;;;;;;10972394;27;20164;-70
2023/06/03 15:30:27;;;;;;;7.40;3.85;;;29.70;61.20;;;;;;10982683;32;20048;-71
2023/06/03 15:36:29;;;;;;;6.75;3.78;;;29.70;59.00;;;;;;10981602;32;20023;-72
2023/06/03 15:42:31;;;;;;;4.85;2.97;;;29.80;60.80;;;;;;10982068;32;20015;-70
2023/06/03 15:48:36;;;;;;;6.25;3.72;;;29.60;59.20;;;;;;10981644;32;20046;-70
2023/06/03 15:54:38;;;;;;;5.15;3.35;;;29.70;59.60;;;;;;10979811;32;20022;-69
2023/06/03 16:00:40;;;;;;;4.18;2.50;;;29.70;57.80;;;;;;10981459;32;20018;-69
2023/06/03 16:06:42;;;;;;;5.93;3.80;;;29.80;57.40;;;;;;10967359;32;20015;-73
2023/06/03 16:12:44;;;;;;;3.90;2.45;;;29.70;56.50;;;;;;10979492;32;20023;-73
2023/06/03 16:19:03;;;;;;;4.65;3.00;;;29.60;56.50;;;;;;10962970;32;20053;-72
2023/06/03 16:25:06;;;;;;;6.32;3.28;;;29.40;56.80;;;;;;10980241;32;20195;-74
2023/06/03 16:31:08;;;;;;;6.90;3.45;;;29.30;56.60;;;;;;10965587;32;20038;-74
2023/06/03 16:37:10;;;;;;;4.45;3.25;;;29.30;56.30;;;;;;10979956;32;20019;-70
2023/06/03 16:43:12;;;;;;;5.03;2.47;;;29.30;56.10;;;;;;10979721;32;20099;-70
2023/06/03 16:49:19;;;;;;;5.68;3.92;;;29.30;56.40;;;;;;10966378;32;20348;-70
2023/06/03 16:55:22;;;;;;;5.97;2.92;;;29.30;56.60;;;;;;10965603;32;20031;-70
2023/06/03 17:01:24;;;;;;;5.60;3.47;;;29.30;56.40;;;;;;10979393;32;20053;-70
2023/06/03 17:07:45;;;;;;;7.82;3.65;;;29.10;56.30;;;;;;10965236;32;20065;-70
2023/06/03 17:13:47;;;;;;;4.40;2.50;;;29.00;56.40;;;;;;10979121;32;20022;-70
2023/06/03 17:19:49;;;;;;;5.20;1.73;;;28.80;56.50;;;;;;10965598;32;20045;-70
2023/06/03 17:25:51;;;;;;;4.93;2.95;;;28.70;57.50;;;;;;10978730;32;20315;-70
2023/06/03 17:31:53;;;;;;;4.05;2.55;;;28.60;58.80;;;;;;10979681;32;20027;-71
2023/06/03 17:37:55;;;;;;;5.20;3.10;;;28.50;59.60;;;;;;10964502;32;20092;-69
2023/06/03 17:43:57;;;;;;;4.03;2.90;;;28.30;60.20;;;;;;10978505;32;20064;-70
2023/06/03 17:49:59;;;;;;;6.90;3.40;;;28.20;62.00;;;;;;10961162;32;20053;-70
2023/06/03 17:56:01;;;;;;;10.30;4.60;;;27.90;64.00;;;;;;10976435;32;20026;-70
2023/06/03 18:02:03;;;;;;;9.10;3.90;;;27.80;64.40;;;;;;10984595;32;20043;-70
2023/06/03 18:08:05;;;;;;;8.90;2.92;;;27.70;65.50;;;;;;10985613;32;20399;-74
2023/06/03 18:14:08;;;;;;;3.47;2.65;;;27.60;66.30;;;;;;10980826;32;20384;-72
2023/06/03 18:20:38;;;;;;;5.05;3.15;;;27.60;66.20;;;;;;10962021;32;20046;-73
2023/06/03 18:26:40;;;;;;;3.85;2.60;;;27.60;66.40;;;;;;10970003;32;20026;-73
2023/06/03 18:32:42;;;;;;;2.90;1.90;;;27.50;66.80;;;;;;10984737;32;20061;-72
2023/06/03 18:38:46;;;;;;;4.40;2.85;;;27.50;66.80;;;;;;10959114;32;20049;-72
2023/06/03 18:44:51;;;;;;;4.47;1.93;;;27.40;67.80;;;;;;10969211;32;20026;-72
2023/06/03 18:50:53;;;;;;;3.62;2.00;;;27.40;69.40;;;;;;10983318;32;20011;-72
2023/06/03 18:56:55;;;;;;;3.08;2.22;;;27.40;70.00;;;;;;10970518;32;20396;-73
2023/06/03 19:02:57;;;;;;;5.25;2.87;;;27.30;69.90;;;;;;10983613;32;20037;-73
2023/06/03 19:08:59;;;;;;;2.53;1.80;;;27.30;70.40;;;;;;10955108;32;20027;-73
2023/06/03 19:15:02;;;;;;;3.70;2.12;;;27.30;70.40;;;;;;10932326;32;20015;-73
2023/06/03 19:21:04;;;;;;;2.17;1.60;;;27.10;70.50;;;;;;10945374;32;20037;-73
2023/06/03 19:27:08;;;;;;;3.40;2.20;;;27.00;70.70;;;;;;10945057;32;20076;-73
2023/06/03 19:33:10;;;;;;;4.60;3.15;;;26.90;70.60;;;;;;10972950;32;20031;-73
2023/06/03 19:39:13;;;;;;;3.58;2.25;;;26.80;70.80;;;;;;10981471;32;20014;-73
2023/06/03 19:45:15;;;;;;;3.05;2.00;;;26.70;70.80;;;;;;10969137;32;20057;-73
2023/06/03 19:51:18;;;;;;;3.50;2.08;;;26.70;71.60;;;;;;10971882;32;20030;-73
2023/06/03 19:57:20;;;;;;;2.87;2.00;;;26.70;71.80;;;;;;10967093;32;20031;-73
2023/06/03 20:03:23;;;;;;;4.28;2.42;;;26.80;71.80;;;;;;10962955;32;20026;-73
2023/06/03 20:09:25;;;;;;;3.12;1.98;;;26.80;72.00;;;;;;10968770;32;20048;-72
2023/06/03 20:15:27;;;;;;;2.97;1.80;;;26.80;72.10;;;;;;10980597;32;20018;-72
2023/06/03 20:21:29;;;;;;;2.70;1.80;;;26.70;72.40;;;;;;10980237;32;20049;-72
2023/06/03 20:27:31;;;;;;;4.00;2.47;;;26.60;72.70;;;;;;10980581;32;20038;-72
2023/06/03 20:33:35;;;;;;;12.85;2.53;;;26.60;73.50;;;;;;10980109;32;20048;-72
2023/06/03 20:39:37;;;;;;;6.32;2.55;;;26.40;74.10;;;;;;10954281;32;20349;-73
2023/06/03 20:45:40;;;;;;;2.70;1.73;;;26.30;75.00;;;;;;10960615;32;20037;-72
2023/06/03 20:51:42;;;;;;;2.53;1.40;;;26.10;75.20;;;;;;10901359;32;20018;-73
2023/06/03 20:57:44;;;;;;;2.40;1.20;;;26.20;75.50;;;;;;10891341;32;20031;-72
2023/06/03 21:03:46;;;;;;;3.37;1.73;;;26.20;75.70;;;;;;10934702;32;20030;-73
2023/06/03 21:09:48;;;;;;;2.80;1.90;;;26.00;75.70;;;;;;10978972;32;20053;-72
2023/06/03 21:15:51;;;;;;;2.80;1.80;;;26.00;76.50;;;;;;10941397;32;20027;-73
2023/06/03 21:21:53;;;;;;;2.62;1.58;;;25.80;75.80;;;;;;10941777;32;20019;-72
2023/06/03 21:27:55;;;;;;;1.17;0.68;;;25.60;76.40;;;;;;10941251;32;20023;-72
2023/06/03 21:33:57;;;;;;;1.83;1.40;;;25.50;76.80;;;;;;10942677;32;20033;-72
2023/06/03 21:39:59;;;;;;;3.12;1.55;;;25.50;77.20;;;;;;10949148;32;20026;-72
2023/06/03 21:46:02;;;;;;;4.50;2.28;;;25.40;77.20;;;;;;10949148;32;20417;-73
2023/06/03 21:52:04;;;;;;;5.97;2.87;;;25.30;76.80;;;;;;10944553;32;20041;-72
2023/06/03 21:58:06;;;;;;;2.03;1.42;;;25.30;77.00;;;;;;10948461;32;20428;-72
2023/06/03 22:04:08;;;;;;;3.92;2.55;;;25.20;77.40;;;;;;10942895;32;20290;-73
2023/06/03 22:10:11;;;;;;;4.15;2.62;;;25.20;77.10;;;;;;10934554;32;20018;-72
2023/06/03 22:16:13;;;;;;;3.72;2.65;;;25.00;77.40;;;;;;10947948;32;20015;-72
2023/06/03 22:22:16;;;;;;;4.97;3.37;;;24.90;77.10;;;;;;10947607;32;20026;-72
2023/06/03 22:28:18;;;;;;;3.92;2.67;;;24.70;76.80;;;;;;10946146;32;20019;-73
2023/06/03 22:34:21;;;;;;;7.35;3.22;;;24.70;77.60;;;;;;10944762;32;20023;-72
2023/06/03 22:40:23;;;;;;;3.37;2.15;;;24.70;78.10;;;;;;10931331;32;20348;-72
2023/06/03 22:46:25;;;;;;;3.25;2.42;;;24.90;78.00;;;;;;10941652;32;20429;-72
2023/06/03 22:52:27;;;;;;;7.37;2.85;;;24.90;77.80;;;;;;10967485;32;20053;-72
2023/06/03 22:58:29;;;;;;;6.82;2.60;;;24.80;77.90;;;;;;10982111;32;20434;-72
2023/06/03 23:04:31;;;;;;;4.05;2.65;;;24.80;78.70;;;;;;10981745;32;20298;-72
2023/06/03 23:10:33;;;;;;;3.72;2.10;;;24.80;78.90;;;;;;10981448;32;20053;-72
2023/06/03 23:16:35;;;;;;;2.75;1.85;;;24.80;78.90;;;;;;10981427;32;20038;-72
2023/06/03 23:22:37;;;;;;;3.35;2.05;;;24.80;79.10;;;;;;10981319;32;20045;-72
2023/06/03 23:28:39;;;;;;;6.20;2.40;;;24.80;79.40;;;;;;10599749;27;12164622;-72
2023/06/03 23:34:41;;;;;;;2.87;2.20;;;24.70;79.80;;;;;;10979380;32;20022;-73
2023/06/03 23:40:43;;;;;;;2.60;1.90;;;24.60;80.00;;;;;;10966273;32;21004;-72
2023/06/03 23:46:45;;;;;;;5.40;2.33;;;24.60;80.20;;;;;;10978286;32;20023;-72
2023/06/03 23:52:47;;;;;;;4.62;2.47;;;24.60;79.80;;;;;;10965246;32;20493;-72
2023/06/03 23:59:00;;;;;;;2.83;2.00;;;24.60;79.40;;;;;;10981015;32;20026;-72
